sensor_id;sensor_type;location;lat;lon;timestamp;pressure;altitude;pressure_sealevel;temperature;humidity
29825;BME280;16713;52.916;12.834;2023-01-25T00:00:38;103275.63;;;1.92;68.26
29825;BME280;16713;52.916;12.834;2023-01-25T00:03:04;103269.03;;;1.88;67.86
29825;BME280;16713;52.916;12.834;2023-01-25T00:05:30;103264.34;;;1.95;67.01
29825;BME280;16713;52.916;12.834;2023-01-25T00:07:57;103256.22;;;1.95;67.48
29825;BME280;16713;52.916;12.834;2023-01-25T00:10:23;103260.13;;;1.88;65.41
29825;BME280;16713;52.916;12.834;2023-01-25T00:12:49;103258.69;;;1.97;65.86
29825;BME280;16713;52.916;12.834;2023-01-25T00:15:16;103255.41;;;1.83;66.48
29825;BME280;16713;52.916;12.834;2023-01-25T00:17:42;103249.56;;;2.10;66.06
29825;BME280;16713;52.916;12.834;2023-01-25T00:20:09;103241.78;;;1.90;66.82
29825;BME280;16713;52.916;12.834;2023-01-25T00:22:35;103233.78;;;1.83;66.74
29825;BME280;16713;52.916;12.834;2023-01-25T00:25:02;103234.09;;;1.87;67.72
29825;BME280;16713;52.916;12.834;2023-01-25T00:27:28;103233.28;;;1.75;67.71
29825;BME280;16713;52.916;12.834;2023-01-25T00:29:54;103231.75;;;1.90;66.84
29825;BME280;16713;52.916;12.834;2023-01-25T00:34:48;103240.88;;;2.08;66.67
29825;BME280;16713;52.916;12.834;2023-01-25T00:39:45;103238.84;;;2.03;64.76
29825;BME280;16713;52.916;12.834;2023-01-25T00:42:15;103235.09;;;2.04;65.71
29825;BME280;16713;52.916;12.834;2023-01-25T00:44:42;103228.34;;;1.95;66.31
29825;BME280;16713;52.916;12.834;2023-01-25T00:47:09;103218.59;;;1.94;66.29
29825;BME280;16713;52.916;12.834;2023-01-25T00:49:36;103210.81;;;1.97;64.88
29825;BME280;16713;52.916;12.834;2023-01-25T00:52:03;103212.47;;;1.98;66.06
29825;BME280;16713;52.916;12.834;2023-01-25T00:54:29;103215.75;;;1.89;65.43
29825;BME280;16713;52.916;12.834;2023-01-25T00:56:56;103214.91;;;1.88;66.22
29825;BME280;16713;52.916;12.834;2023-01-25T00:59:23;103200.59;;;1.88;65.83
29825;BME280;16713;52.916;12.834;2023-01-25T01:01:50;103194.22;;;1.82;65.40
29825;BME280;16713;52.916;12.834;2023-01-25T01:04:17;103188.69;;;1.89;66.33
29825;BME280;16713;52.916;12.834;2023-01-25T01:06:44;103190.38;;;1.90;66.46
29825;BME280;16713;52.916;12.834;2023-01-25T01:09:11;103198.47;;;1.90;66.88
29825;BME280;16713;52.916;12.834;2023-01-25T01:11:38;103189.41;;;1.96;65.73
29825;BME280;16713;52.916;12.834;2023-01-25T01:14:04;103202.59;;;1.92;65.05
29825;BME280;16713;52.916;12.834;2023-01-25T01:16:31;103197.19;;;1.92;66.82
29825;BME280;16713;52.916;12.834;2023-01-25T01:18:58;103191.50;;;1.71;67.48
29825;BME280;16713;52.916;12.834;2023-01-25T01:21:24;103199.75;;;1.87;66.22
29825;BME280;16713;52.916;12.834;2023-01-25T01:23:50;103196.13;;;1.82;66.78
29825;BME280;16713;52.916;12.834;2023-01-25T01:26:18;103188.81;;;1.94;66.38
29825;BME280;16713;52.916;12.834;2023-01-25T01:28:45;103200.34;;;2.01;66.50
29825;BME280;16713;52.916;12.834;2023-01-25T01:31:12;103194.75;;;2.02;66.30
29825;BME280;16713;52.916;12.834;2023-01-25T01:33:39;103192.59;;;2.04;66.17
29825;BME280;16713;52.916;12.834;2023-01-25T01:36:10;103194.34;;;1.99;66.63
29825;BME280;16713;52.916;12.834;2023-01-25T01:38:37;103196.34;;;1.92;66.49
29825;BME280;16713;52.916;12.834;2023-01-25T01:41:04;103192.84;;;1.91;66.10
29825;BME280;16713;52.916;12.834;2023-01-25T01:43:30;103184.72;;;1.91;65.93
29825;BME280;16713;52.916;12.834;2023-01-25T01:45:59;103184.72;;;1.91;66.24
29825;BME280;16713;52.916;12.834;2023-01-25T01:51:00;103183.66;;;1.92;65.92
29825;BME280;16713;52.916;12.834;2023-01-25T01:53:27;103176.94;;;1.95;65.28
29825;BME280;16713;52.916;12.834;2023-01-25T01:55:56;103175.41;;;1.99;65.19
29825;BME280;16713;52.916;12.834;2023-01-25T01:58:24;103173.97;;;1.96;64.82
29825;BME280;16713;52.916;12.834;2023-01-25T02:00:51;103175.88;;;1.96;64.50
29825;BME280;16713;52.916;12.834;2023-01-25T02:03:17;103173.97;;;1.96;66.05
29825;BME280;16713;52.916;12.834;2023-01-25T02:08:16;103159.41;;;1.86;65.27
29825;BME280;16713;52.916;12.834;2023-01-25T02:10:43;103162.59;;;1.94;64.83
29825;BME280;16713;52.916;12.834;2023-01-25T02:13:10;103168.00;;;1.94;64.92
29825;BME280;16713;52.916;12.834;2023-01-25T02:15:38;103167.06;;;1.89;65.52
29825;BME280;16713;52.916;12.834;2023-01-25T02:18:06;103159.53;;;1.91;66.54
29825;BME280;16713;52.916;12.834;2023-01-25T02:20:37;103162.94;;;1.86;65.44
29825;BME280;16713;52.916;12.834;2023-01-25T02:25:40;103161.28;;;1.85;65.44
29825;BME280;16713;52.916;12.834;2023-01-25T02:28:28;103165.41;;;1.88;66.45
29825;BME280;16713;52.916;12.834;2023-01-25T02:30:53;103163.88;;;1.92;66.05
29825;BME280;16713;52.916;12.834;2023-01-25T02:33:21;103159.88;;;1.94;65.65
29825;BME280;16713;52.916;12.834;2023-01-25T02:35:48;103158.09;;;1.88;65.95
29825;BME280;16713;52.916;12.834;2023-01-25T02:38:17;103146.13;;;1.84;66.08
29825;BME280;16713;52.916;12.834;2023-01-25T02:40:48;103144.94;;;1.92;65.69
29825;BME280;16713;52.916;12.834;2023-01-25T02:43:17;103151.91;;;1.88;65.89
29825;BME280;16713;52.916;12.834;2023-01-25T02:45:44;103148.34;;;1.87;67.23
29825;BME280;16713;52.916;12.834;2023-01-25T02:48:13;103158.56;;;1.97;65.33
29825;BME280;16713;52.916;12.834;2023-01-25T02:50:39;103154.13;;;1.91;65.40
29825;BME280;16713;52.916;12.834;2023-01-25T02:53:05;103151.91;;;1.88;66.85
29825;BME280;16713;52.916;12.834;2023-01-25T02:55:32;103144.72;;;1.70;66.03
29825;BME280;16713;52.916;12.834;2023-01-25T02:57:58;103136.63;;;1.70;67.89
29825;BME280;16713;52.916;12.834;2023-01-25T03:00:24;103136.25;;;1.90;67.58
29825;BME280;16713;52.916;12.834;2023-01-25T03:02:51;103131.28;;;1.87;66.58
29825;BME280;16713;52.916;12.834;2023-01-25T03:05:17;103127.41;;;1.94;68.34
29825;BME280;16713;52.916;12.834;2023-01-25T03:07:43;103130.25;;;1.88;68.68
29825;BME280;16713;52.916;12.834;2023-01-25T03:10:10;103122.13;;;1.88;67.76
29825;BME280;16713;52.916;12.834;2023-01-25T03:12:36;103122.00;;;1.83;68.46
29825;BME280;16713;52.916;12.834;2023-01-25T03:15:03;103124.25;;;2.09;66.04
29825;BME280;16713;52.916;12.834;2023-01-25T03:17:29;103123.91;;;2.06;67.51
29825;BME280;16713;52.916;12.834;2023-01-25T03:19:56;103122.03;;;2.06;66.52
29825;BME280;16713;52.916;12.834;2023-01-25T03:22:22;103101.91;;;2.02;66.53
29825;BME280;16713;52.916;12.834;2023-01-25T03:24:49;103116.00;;;2.04;67.92
29825;BME280;16713;52.916;12.834;2023-01-25T03:27:15;103116.38;;;2.08;67.10
29825;BME280;16713;52.916;12.834;2023-01-25T03:29:44;103103.56;;;1.80;66.85
29825;BME280;16713;52.916;12.834;2023-01-25T03:32:10;103111.75;;;1.96;67.96
29825;BME280;16713;52.916;12.834;2023-01-25T03:34:37;103106.50;;;1.90;67.61
29825;BME280;16713;52.916;12.834;2023-01-25T03:37:03;103108.72;;;1.93;69.15
29825;BME280;16713;52.916;12.834;2023-01-25T03:39:29;103102.84;;;1.84;68.75
29825;BME280;16713;52.916;12.834;2023-01-25T03:41:56;103086.97;;;1.88;67.07
29825;BME280;16713;52.916;12.834;2023-01-25T03:44:22;103084.50;;;1.75;68.80
29825;BME280;16713;52.916;12.834;2023-01-25T03:46:48;103084.16;;;1.71;68.80
29825;BME280;16713;52.916;12.834;2023-01-25T03:49:15;103076.50;;;1.91;68.34
29825;BME280;16713;52.916;12.834;2023-01-25T03:51:41;103070.97;;;1.86;68.99
29825;BME280;16713;52.916;12.834;2023-01-25T03:54:07;103068.81;;;1.88;69.07
29825;BME280;16713;52.916;12.834;2023-01-25T03:56:35;103064.84;;;1.79;68.32
29825;BME280;16713;52.916;12.834;2023-01-25T03:59:02;103065.31;;;1.88;67.79
29825;BME280;16713;52.916;12.834;2023-01-25T04:01:29;103066.94;;;2.00;67.54
29825;BME280;16713;52.916;12.834;2023-01-25T04:03:55;103056.81;;;1.96;69.32
29825;BME280;16713;52.916;12.834;2023-01-25T04:06:21;103058.94;;;2.06;67.38
29825;BME280;16713;52.916;12.834;2023-01-25T04:08:47;103060.16;;;1.75;69.24
29825;BME280;16713;52.916;12.834;2023-01-25T04:11:14;103052.56;;;2.00;68.63
29825;BME280;16713;52.916;12.834;2023-01-25T04:13:40;103057.06;;;1.94;67.44
29825;BME280;16713;52.916;12.834;2023-01-25T04:16:07;103054.34;;;1.94;67.64
29825;BME280;16713;52.916;12.834;2023-01-25T04:18:34;103051.09;;;1.81;68.11
29825;BME280;16713;52.916;12.834;2023-01-25T04:21:00;103050.59;;;1.95;68.85
29825;BME280;16713;52.916;12.834;2023-01-25T04:23:26;103050.97;;;1.76;68.04
29825;BME280;16713;52.916;12.834;2023-01-25T04:25:54;103043.56;;;1.83;69.48
29825;BME280;16713;52.916;12.834;2023-01-25T04:28:21;103041.31;;;1.91;69.27
29825;BME280;16713;52.916;12.834;2023-01-25T04:30:47;103040.25;;;2.04;67.89
29825;BME280;16713;52.916;12.834;2023-01-25T04:33:13;103039.50;;;1.97;67.97
29825;BME280;16713;52.916;12.834;2023-01-25T04:35:40;103033.75;;;1.93;68.59
29825;BME280;16713;52.916;12.834;2023-01-25T04:38:06;103026.47;;;2.06;68.41
29825;BME280;16713;52.916;12.834;2023-01-25T04:40:33;103020.41;;;1.75;69.04
29825;BME280;16713;52.916;12.834;2023-01-25T04:42:59;103016.84;;;1.86;69.75
29825;BME280;16713;52.916;12.834;2023-01-25T04:45:26;103019.59;;;1.75;68.12
29825;BME280;16713;52.916;12.834;2023-01-25T04:47:56;103008.78;;;1.75;69.94
29825;BME280;16713;52.916;12.834;2023-01-25T04:50:23;103010.25;;;1.82;69.25
29825;BME280;16713;52.916;12.834;2023-01-25T04:52:49;103007.88;;;1.58;68.41
29825;BME280;16713;52.916;12.834;2023-01-25T04:55:16;103011.50;;;1.63;69.13
29825;BME280;16713;52.916;12.834;2023-01-25T04:57:42;103012.38;;;1.80;68.94
29825;BME280;16713;52.916;12.834;2023-01-25T05:00:08;102997.94;;;1.75;69.28
29825;BME280;16713;52.916;12.834;2023-01-25T05:02:35;102995.97;;;1.70;69.16
29825;BME280;16713;52.916;12.834;2023-01-25T05:05:01;103000.16;;;1.78;69.24
29825;BME280;16713;52.916;12.834;2023-01-25T05:07:28;102998.81;;;1.64;69.56
29825;BME280;16713;52.916;12.834;2023-01-25T05:09:54;102986.53;;;1.73;69.23
29825;BME280;16713;52.916;12.834;2023-01-25T05:12:20;102986.41;;;1.79;69.27
29825;BME280;16713;52.916;12.834;2023-01-25T05:14:47;102989.69;;;1.81;70.32
29825;BME280;16713;52.916;12.834;2023-01-25T05:17:13;102990.56;;;1.70;68.45
29825;BME280;16713;52.916;12.834;2023-01-25T05:19:39;102986.25;;;1.86;70.24
29825;BME280;16713;52.916;12.834;2023-01-25T05:22:06;102999.72;;;1.69;69.17
29825;BME280;16713;52.916;12.834;2023-01-25T05:24:36;102985.28;;;1.64;69.70
29825;BME280;16713;52.916;12.834;2023-01-25T05:27:07;102994.47;;;1.91;69.55
29825;BME280;16713;52.916;12.834;2023-01-25T05:29:37;102991.81;;;1.79;69.00
29825;BME280;16713;52.916;12.834;2023-01-25T05:32:08;102993.06;;;1.88;68.60
29825;BME280;16713;52.916;12.834;2023-01-25T05:34:35;102978.41;;;1.73;68.39
29825;BME280;16713;52.916;12.834;2023-01-25T05:37:03;102978.88;;;1.81;67.96
29825;BME280;16713;52.916;12.834;2023-01-25T05:39:29;102982.34;;;1.93;68.21
29825;BME280;16713;52.916;12.834;2023-01-25T05:41:56;102968.69;;;2.00;67.23
29825;BME280;16713;52.916;12.834;2023-01-25T05:44:22;102975.63;;;2.08;68.13
29825;BME280;16713;52.916;12.834;2023-01-25T05:46:49;102969.16;;;1.69;69.39
29825;BME280;16713;52.916;12.834;2023-01-25T05:49:16;102968.34;;;1.68;68.61
29825;BME280;16713;52.916;12.834;2023-01-25T05:51:42;102965.34;;;1.81;70.07
29825;BME280;16713;52.916;12.834;2023-01-25T05:54:11;102964.28;;;1.82;69.04
29825;BME280;16713;52.916;12.834;2023-01-25T05:56:38;102964.00;;;1.95;68.17
29825;BME280;16713;52.916;12.834;2023-01-25T05:59:04;102965.22;;;1.88;69.30
29825;BME280;16713;52.916;12.834;2023-01-25T06:01:30;102961.91;;;1.86;69.22
29825;BME280;16713;52.916;12.834;2023-01-25T06:03:57;102963.00;;;1.85;68.68
29825;BME280;16713;52.916;12.834;2023-01-25T06:06:23;102966.00;;;1.88;68.66
29825;BME280;16713;52.916;12.834;2023-01-25T06:08:50;102959.16;;;1.97;68.75
29825;BME280;16713;52.916;12.834;2023-01-25T06:11:17;102955.97;;;1.72;69.63
29825;BME280;16713;52.916;12.834;2023-01-25T06:13:44;102951.63;;;1.71;70.07
29825;BME280;16713;52.916;12.834;2023-01-25T06:16:10;102959.56;;;1.89;69.45
29825;BME280;16713;52.916;12.834;2023-01-25T06:18:37;102956.59;;;2.02;68.51
29825;BME280;16713;52.916;12.834;2023-01-25T06:21:04;102957.06;;;1.99;68.32
29825;BME280;16713;52.916;12.834;2023-01-25T06:23:30;102955.19;;;1.88;68.79
29825;BME280;16713;52.916;12.834;2023-01-25T06:26:00;102957.50;;;1.68;68.25
29825;BME280;16713;52.916;12.834;2023-01-25T06:28:31;102948.66;;;1.73;68.09
29825;BME280;16713;52.916;12.834;2023-01-25T06:31:08;102954.03;;;1.84;67.89
29825;BME280;16713;52.916;12.834;2023-01-25T06:33:36;102951.78;;;1.93;67.58
29825;BME280;16713;52.916;12.834;2023-01-25T06:36:03;102937.50;;;1.69;69.73
29825;BME280;16713;52.916;12.834;2023-01-25T06:38:30;102936.50;;;1.59;69.36
29825;BME280;16713;52.916;12.834;2023-01-25T06:41:00;102933.44;;;1.55;70.02
29825;BME280;16713;52.916;12.834;2023-01-25T06:43:27;102936.59;;;1.64;69.31
29825;BME280;16713;52.916;12.834;2023-01-25T06:45:57;102936.75;;;1.85;69.88
29825;BME280;16713;52.916;12.834;2023-01-25T06:48:24;102928.53;;;1.80;69.78
29825;BME280;16713;52.916;12.834;2023-01-25T06:50:58;102930.28;;;1.86;70.07
29825;BME280;16713;52.916;12.834;2023-01-25T06:53:25;102926.03;;;1.62;69.11
29825;BME280;16713;52.916;12.834;2023-01-25T06:55:56;102916.56;;;1.76;69.22
29825;BME280;16713;52.916;12.834;2023-01-25T06:58:22;102928.25;;;1.65;70.80
29825;BME280;16713;52.916;12.834;2023-01-25T07:00:48;102918.56;;;1.69;70.71
29825;BME280;16713;52.916;12.834;2023-01-25T07:03:15;102919.84;;;1.78;71.20
29825;BME280;16713;52.916;12.834;2023-01-25T07:05:41;102913.38;;;1.79;69.92
29825;BME280;16713;52.916;12.834;2023-01-25T07:08:07;102910.06;;;1.77;69.81
29825;BME280;16713;52.916;12.834;2023-01-25T07:10:34;102901.91;;;1.89;70.97
29825;BME280;16713;52.916;12.834;2023-01-25T07:13:00;102905.41;;;1.73;71.04
29825;BME280;16713;52.916;12.834;2023-01-25T07:15:26;102904.19;;;1.80;70.84
29825;BME280;16713;52.916;12.834;2023-01-25T07:17:53;102905.25;;;1.79;69.16
29825;BME280;16713;52.916;12.834;2023-01-25T07:20:21;102908.47;;;1.65;70.66
29825;BME280;16713;52.916;12.834;2023-01-25T07:22:48;102896.44;;;1.72;70.52
29825;BME280;16713;52.916;12.834;2023-01-25T07:25:14;102887.19;;;1.68;71.39
29825;BME280;16713;52.916;12.834;2023-01-25T07:27:40;102885.47;;;1.62;70.45
29825;BME280;16713;52.916;12.834;2023-01-25T07:30:07;102885.34;;;1.85;70.05
29825;BME280;16713;52.916;12.834;2023-01-25T07:32:34;102882.22;;;1.77;70.52
29825;BME280;16713;52.916;12.834;2023-01-25T07:35:00;102880.91;;;1.79;70.02
29825;BME280;16713;52.916;12.834;2023-01-25T07:37:26;102880.56;;;1.76;71.34
29825;BME280;16713;52.916;12.834;2023-01-25T07:39:53;102877.81;;;1.87;69.79
29825;BME280;16713;52.916;12.834;2023-01-25T07:42:23;102875.50;;;1.79;69.85
29825;BME280;16713;52.916;12.834;2023-01-25T07:44:50;102869.25;;;1.79;70.55
29825;BME280;16713;52.916;12.834;2023-01-25T07:47:16;102869.44;;;1.89;70.81
29825;BME280;16713;52.916;12.834;2023-01-25T07:49:43;102863.53;;;1.75;70.31
29825;BME280;16713;52.916;12.834;2023-01-25T07:52:09;102860.50;;;1.72;71.58
29825;BME280;16713;52.916;12.834;2023-01-25T07:54:35;102860.16;;;1.68;70.70
29825;BME280;16713;52.916;12.834;2023-01-25T07:57:02;102853.66;;;1.69;70.89
29825;BME280;16713;52.916;12.834;2023-01-25T07:59:28;102847.69;;;1.67;72.36
29825;BME280;16713;52.916;12.834;2023-01-25T08:01:56;102871.09;;;1.90;71.10
29825;BME280;16713;52.916;12.834;2023-01-25T08:04:22;102864.69;;;1.79;69.97
29825;BME280;16713;52.916;12.834;2023-01-25T08:06:48;102865.16;;;1.76;70.42
29825;BME280;16713;52.916;12.834;2023-01-25T08:09:16;102862.91;;;1.85;72.26
29825;BME280;16713;52.916;12.834;2023-01-25T08:11:45;102861.91;;;1.91;71.58
29825;BME280;16713;52.916;12.834;2023-01-25T08:14:12;102861.66;;;1.92;71.04
29825;BME280;16713;52.916;12.834;2023-01-25T08:16:38;102865.16;;;2.04;69.44
29825;BME280;16713;52.916;12.834;2023-01-25T08:19:04;102861.63;;;2.04;70.58
29825;BME280;16713;52.916;12.834;2023-01-25T08:21:32;102869.34;;;1.84;70.20
29825;BME280;16713;52.916;12.834;2023-01-25T08:23:59;102853.72;;;1.86;71.52
29825;BME280;16713;52.916;12.834;2023-01-25T08:26:26;102857.97;;;1.98;71.87
29825;BME280;16713;52.916;12.834;2023-01-25T08:28:55;102857.28;;;2.03;69.54
29825;BME280;16713;52.916;12.834;2023-01-25T08:31:23;102864.28;;;2.16;68.81
29825;BME280;16713;52.916;12.834;2023-01-25T08:33:50;102859.53;;;1.94;70.65
29825;BME280;16713;52.916;12.834;2023-01-25T08:36:17;102856.91;;;1.83;70.60
29825;BME280;16713;52.916;12.834;2023-01-25T08:38:46;102854.69;;;1.80;71.99
29825;BME280;16713;52.916;12.834;2023-01-25T08:41:14;102855.09;;;1.88;71.22
29825;BME280;16713;52.916;12.834;2023-01-25T08:43:41;102845.06;;;1.72;71.26
29825;BME280;16713;52.916;12.834;2023-01-25T08:46:08;102849.63;;;2.00;71.61
29825;BME280;16713;52.916;12.834;2023-01-25T08:48:34;102848.69;;;2.06;69.68
29825;BME280;16713;52.916;12.834;2023-01-25T08:51:00;102850.59;;;1.94;71.23
29825;BME280;16713;52.916;12.834;2023-01-25T08:53:27;102844.84;;;1.90;71.13
29825;BME280;16713;52.916;12.834;2023-01-25T08:55:54;102846.72;;;1.73;71.07
29825;BME280;16713;52.916;12.834;2023-01-25T08:58:20;102841.81;;;1.70;72.40
29825;BME280;16713;52.916;12.834;2023-01-25T09:00:47;102843.63;;;1.81;72.50
29825;BME280;16713;52.916;12.834;2023-01-25T09:03:14;102836.72;;;1.90;71.45
29825;BME280;16713;52.916;12.834;2023-01-25T09:05:41;102831.41;;;1.95;72.51
29825;BME280;16713;52.916;12.834;2023-01-25T09:08:07;102828.38;;;1.92;71.83
29825;BME280;16713;52.916;12.834;2023-01-25T09:10:34;102826.22;;;2.06;70.23
29825;BME280;16713;52.916;12.834;2023-01-25T09:13:01;102823.69;;;1.87;70.10
29825;BME280;16713;52.916;12.834;2023-01-25T09:16:02;102823.41;;;1.72;72.20
29825;BME280;16713;52.916;12.834;2023-01-25T09:18:20;102810.72;;;1.73;70.94
29825;BME280;16713;52.916;12.834;2023-01-25T09:20:47;102812.44;;;2.07;71.39
29825;BME280;16713;52.916;12.834;2023-01-25T09:23:13;102803.63;;;2.00;69.86
29825;BME280;16713;52.916;12.834;2023-01-25T09:25:39;102795.75;;;1.82;72.11
29825;BME280;16713;52.916;12.834;2023-01-25T09:28:06;102800.81;;;1.95;71.79
29825;BME280;16713;52.916;12.834;2023-01-25T09:30:37;102803.94;;;1.87;72.17
29825;BME280;16713;52.916;12.834;2023-01-25T09:33:25;102791.88;;;1.78;71.63
29825;BME280;16713;52.916;12.834;2023-01-25T09:35:52;102792.63;;;1.73;72.16
29825;BME280;16713;52.916;12.834;2023-01-25T09:38:18;102794.84;;;1.76;73.17
29825;BME280;16713;52.916;12.834;2023-01-25T09:40:48;102789.34;;;1.88;72.12
29825;BME280;16713;52.916;12.834;2023-01-25T09:43:25;102788.88;;;1.91;72.57
29825;BME280;16713;52.916;12.834;2023-01-25T09:45:57;102787.50;;;2.05;71.31
29825;BME280;16713;52.916;12.834;2023-01-25T09:48:30;102789.28;;;1.99;71.96
29825;BME280;16713;52.916;12.834;2023-01-25T09:53:33;102780.66;;;1.86;72.08
29825;BME280;16713;52.916;12.834;2023-01-25T09:56:19;102779.13;;;1.90;71.94
29825;BME280;16713;52.916;12.834;2023-01-25T09:58:47;102773.06;;;1.99;71.26
29825;BME280;16713;52.916;12.834;2023-01-25T10:06:13;102774.28;;;2.09;72.48
29825;BME280;16713;52.916;12.834;2023-01-25T10:13:47;102749.25;;;2.01;71.35
29825;BME280;16713;52.916;12.834;2023-01-25T10:16:17;102746.47;;;1.96;71.67
29825;BME280;16713;52.916;12.834;2023-01-25T10:26:36;102728.22;;;2.03;71.17
29825;BME280;16713;52.916;12.834;2023-01-25T10:29:09;102724.91;;;2.01;71.27
29825;BME280;16713;52.916;12.834;2023-01-25T10:34:15;102716.66;;;1.91;73.15
29825;BME280;16713;52.916;12.834;2023-01-25T10:36:44;102722.69;;;1.98;72.72
29825;BME280;16713;52.916;12.834;2023-01-25T10:39:12;102717.28;;;1.98;72.83
29825;BME280;16713;52.916;12.834;2023-01-25T10:41:44;102711.63;;;2.17;71.03
29825;BME280;16713;52.916;12.834;2023-01-25T10:44:13;102707.53;;;2.14;70.79
29825;BME280;16713;52.916;12.834;2023-01-25T10:52:23;102693.69;;;1.94;71.87
29825;BME280;16713;52.916;12.834;2023-01-25T10:57:36;102686.53;;;2.04;72.35
29825;BME280;16713;52.916;12.834;2023-01-25T11:00:07;102682.22;;;2.03;72.22
29825;BME280;16713;52.916;12.834;2023-01-25T11:08:13;102668.81;;;1.97;70.95
29825;BME280;16713;52.916;12.834;2023-01-25T11:10:41;102665.97;;;1.87;71.64
29825;BME280;16713;52.916;12.834;2023-01-25T11:15:45;102652.19;;;1.88;73.14
29825;BME280;16713;52.916;12.834;2023-01-25T11:18:22;102662.03;;;1.94;72.47
29825;BME280;16713;52.916;12.834;2023-01-25T11:23:34;102650.06;;;1.90;73.60
29825;BME280;16713;52.916;12.834;2023-01-25T11:26:11;102643.91;;;2.12;72.62
29825;BME280;16713;52.916;12.834;2023-01-25T11:28:38;102645.31;;;1.97;72.87
29825;BME280;16713;52.916;12.834;2023-01-25T11:31:07;102646.78;;;2.05;72.00
29825;BME280;16713;52.916;12.834;2023-01-25T11:33:36;102645.09;;;2.21;70.70
29825;BME280;16713;52.916;12.834;2023-01-25T11:38:38;102637.59;;;2.28;70.61
29825;BME280;16713;52.916;12.834;2023-01-25T11:41:13;102623.94;;;2.18;69.96
29825;BME280;16713;52.916;12.834;2023-01-25T11:54:05;102593.97;;;2.24;71.60
29825;BME280;16713;52.916;12.834;2023-01-25T11:56:48;102589.13;;;2.04;72.42
29825;BME280;16713;52.916;12.834;2023-01-25T12:04:46;102576.50;;;1.93;72.59
29825;BME280;16713;52.916;12.834;2023-01-25T12:14:47;102555.28;;;2.02;73.21
29825;BME280;16713;52.916;12.834;2023-01-25T12:20:32;102540.09;;;2.01;71.77
29825;BME280;16713;52.916;12.834;2023-01-25T12:27:56;102525.75;;;2.00;72.80
29825;BME280;16713;52.916;12.834;2023-01-25T12:30:38;102509.50;;;2.00;72.83
29825;BME280;16713;52.916;12.834;2023-01-25T12:33:09;102503.94;;;2.07;72.92
29825;BME280;16713;52.916;12.834;2023-01-25T12:38:18;102495.41;;;1.98;72.83
29825;BME280;16713;52.916;12.834;2023-01-25T12:43:20;102482.19;;;2.24;71.93
29825;BME280;16713;52.916;12.834;2023-01-25T12:45:48;102480.81;;;2.21;71.00
29825;BME280;16713;52.916;12.834;2023-01-25T12:48:18;102482.41;;;2.17;72.36
29825;BME280;16713;52.916;12.834;2023-01-25T12:50:55;102480.34;;;2.29;72.07
29825;BME280;16713;52.916;12.834;2023-01-25T12:53:23;102482.59;;;2.11;70.52
29825;BME280;16713;52.916;12.834;2023-01-25T12:55:50;102481.31;;;2.18;70.93
29825;BME280;16713;52.916;12.834;2023-01-25T12:58:28;102469.94;;;1.94;72.38
29825;BME280;16713;52.916;12.834;2023-01-25T13:01:08;102460.75;;;1.95;72.37
29825;BME280;16713;52.916;12.834;2023-01-25T13:03:50;102449.72;;;1.75;72.40
29825;BME280;16713;52.916;12.834;2023-01-25T13:16:44;102439.63;;;2.14;73.29
29825;BME280;16713;52.916;12.834;2023-01-25T13:19:18;102429.47;;;2.04;71.89
29825;BME280;16713;52.916;12.834;2023-01-25T13:21:45;102424.88;;;1.78;71.96
29825;BME280;16713;52.916;12.834;2023-01-25T13:26:44;102415.78;;;1.89;72.33
29825;BME280;16713;52.916;12.834;2023-01-25T13:31:50;102408.63;;;1.78;73.77
29825;BME280;16713;52.916;12.834;2023-01-25T13:39:46;102397.69;;;1.90;73.35
29825;BME280;16713;52.916;12.834;2023-01-25T13:44:47;102400.97;;;1.97;73.55
29825;BME280;16713;52.916;12.834;2023-01-25T13:47:18;102405.53;;;1.91;72.99
29825;BME280;16713;52.916;12.834;2023-01-25T13:49:47;102398.88;;;1.77;73.91
29825;BME280;16713;52.916;12.834;2023-01-25T13:52:16;102398.34;;;1.75;74.37
29825;BME280;16713;52.916;12.834;2023-01-25T13:54:43;102392.03;;;1.96;72.81
29825;BME280;16713;52.916;12.834;2023-01-25T13:57:11;102394.19;;;1.94;72.05
29825;BME280;16713;52.916;12.834;2023-01-25T13:59:39;102401.22;;;1.95;73.23
29825;BME280;16713;52.916;12.834;2023-01-25T14:02:12;102390.16;;;1.97;73.84
29825;BME280;16713;52.916;12.834;2023-01-25T14:04:43;102393.38;;;1.94;73.81
29825;BME280;16713;52.916;12.834;2023-01-25T14:07:10;102385.41;;;2.04;71.69
29825;BME280;16713;52.916;12.834;2023-01-25T14:09:41;102389.31;;;1.91;74.04
29825;BME280;16713;52.916;12.834;2023-01-25T14:12:08;102390.66;;;1.67;73.06
29825;BME280;16713;52.916;12.834;2023-01-25T14:14:36;102388.56;;;1.74;73.59
29825;BME280;16713;52.916;12.834;2023-01-25T14:17:14;102370.56;;;1.85;74.54
29825;BME280;16713;52.916;12.834;2023-01-25T14:20:10;102376.50;;;1.82;73.10
29825;BME280;16713;52.916;12.834;2023-01-25T14:22:29;102366.25;;;1.89;72.26
29825;BME280;16713;52.916;12.834;2023-01-25T14:27:41;102367.91;;;1.90;72.91
29825;BME280;16713;52.916;12.834;2023-01-25T14:30:18;102367.41;;;1.93;74.20
29825;BME280;16713;52.916;12.834;2023-01-25T14:32:45;102367.41;;;1.93;74.34
29825;BME280;16713;52.916;12.834;2023-01-25T14:35:32;102353.88;;;1.66;74.62
29825;BME280;16713;52.916;12.834;2023-01-25T14:41:36;102347.41;;;1.67;74.93
29825;BME280;16713;52.916;12.834;2023-01-25T14:43:44;102336.16;;;1.54;75.45
29825;BME280;16713;52.916;12.834;2023-01-25T14:46:18;102348.56;;;1.76;75.32
29825;BME280;16713;52.916;12.834;2023-01-25T14:48:45;102338.22;;;1.68;74.69
29825;BME280;16713;52.916;12.834;2023-01-25T14:53:48;102334.13;;;1.66;74.90
29825;BME280;16713;52.916;12.834;2023-01-25T14:56:19;102326.50;;;1.63;75.50
29825;BME280;16713;52.916;12.834;2023-01-25T14:58:47;102321.56;;;1.55;76.28
29825;BME280;16713;52.916;12.834;2023-01-25T15:01:27;102314.28;;;1.55;75.52